sensor_id;sensor_type;location;lat;lon;timestamp;P1;durP1;ratioP1;P2;durP2;ratioP2
70715;SDS011;59053;50.832;12.882;2022-07-29T00:02:00;6.93;;;2.70;;
70715;SDS011;59053;50.832;12.882;2022-07-29T00:04:25;5.73;;;2.67;;
70715;SDS011;59053;50.832;12.882;2022-07-29T00:06:51;5.67;;;2.60;;
70715;SDS011;59053;50.832;12.882;2022-07-29T00:09:16;8.20;;;2.60;;
70715;SDS011;59053;50.832;12.882;2022-07-29T00:11:41;5.27;;;2.27;;
70715;SDS011;59053;50.832;12.882;2022-07-29T00:14:07;10.20;;;3.10;;
70715;SDS011;59053;50.832;12.882;2022-07-29T00:16:33;8.50;;;3.37;;
70715;SDS011;59053;50.832;12.882;2022-07-29T00:18:58;6.43;;;2.95;;
70715;SDS011;59053;50.832;12.882;2022-07-29T00:21:23;6.50;;;2.97;;
70715;SDS011;59053;50.832;12.882;2022-07-29T00:23:49;6.73;;;3.30;;
70715;SDS011;59053;50.832;12.882;2022-07-29T00:26:14;7.83;;;3.50;;
70715;SDS011;59053;50.832;12.882;2022-07-29T00:28:40;10.25;;;2.90;;
70715;SDS011;59053;50.832;12.882;2022-07-29T00:31:05;5.63;;;2.67;;
70715;SDS011;59053;50.832;12.882;2022-07-29T00:33:30;6.87;;;2.80;;
70715;SDS011;59053;50.832;12.882;2022-07-29T00:35:56;7.37;;;2.90;;
70715;SDS011;59053;50.832;12.882;2022-07-29T00:38:21;11.03;;;2.53;;
70715;SDS011;59053;50.832;12.882;2022-07-29T00:40:46;7.82;;;2.80;;
70715;SDS011;59053;50.832;12.882;2022-07-29T00:43:13;6.43;;;2.87;;
70715;SDS011;59053;50.832;12.882;2022-07-29T00:45:39;6.45;;;2.75;;
70715;SDS011;59053;50.832;12.882;2022-07-29T00:48:05;6.20;;;2.50;;
70715;SDS011;59053;50.832;12.882;2022-07-29T00:50:31;7.75;;;2.45;;
70715;SDS011;59053;50.832;12.882;2022-07-29T00:52:57;5.87;;;2.33;;
70715;SDS011;59053;50.832;12.882;2022-07-29T00:55:22;6.57;;;2.35;;
70715;SDS011;59053;50.832;12.882;2022-07-29T00:57:48;9.10;;;2.53;;
70715;SDS011;59053;50.832;12.882;2022-07-29T01:00:18;5.43;;;2.22;;
70715;SDS011;59053;50.832;12.882;2022-07-29T01:02:45;7.20;;;2.20;;
70715;SDS011;59053;50.832;12.882;2022-07-29T01:05:13;6.68;;;2.40;;
70715;SDS011;59053;50.832;12.882;2022-07-29T01:07:39;3.83;;;2.03;;
70715;SDS011;59053;50.832;12.882;2022-07-29T01:10:06;6.95;;;2.22;;
70715;SDS011;59053;50.832;12.882;2022-07-29T01:12:32;6.77;;;2.60;;
70715;SDS011;59053;50.832;12.882;2022-07-29T01:14:59;5.28;;;2.42;;
70715;SDS011;59053;50.832;12.882;2022-07-29T01:17:26;8.00;;;3.65;;
70715;SDS011;59053;50.832;12.882;2022-07-29T01:19:58;6.10;;;2.67;;
70715;SDS011;59053;50.832;12.882;2022-07-29T01:30:29;6.30;;;2.50;;
70715;SDS011;59053;50.832;12.882;2022-07-29T01:32:58;6.95;;;2.70;;
70715;SDS011;59053;50.832;12.882;2022-07-29T01:35:25;4.82;;;2.45;;
70715;SDS011;59053;50.832;12.882;2022-07-29T01:37:52;6.63;;;2.77;;
70715;SDS011;59053;50.832;12.882;2022-07-29T01:40:25;5.63;;;2.33;;
70715;SDS011;59053;50.832;12.882;2022-07-29T01:42:57;4.18;;;2.22;;
70715;SDS011;59053;50.832;12.882;2022-07-29T01:45:41;6.25;;;2.20;;
70715;SDS011;59053;50.832;12.882;2022-07-29T01:50:51;7.27;;;2.30;;
70715;SDS011;59053;50.832;12.882;2022-07-29T01:53:34;5.10;;;2.45;;
70715;SDS011;59053;50.832;12.882;2022-07-29T01:56:01;4.45;;;1.92;;
70715;SDS011;59053;50.832;12.882;2022-07-29T01:58:28;4.63;;;2.10;;
70715;SDS011;59053;50.832;12.882;2022-07-29T02:00:54;5.28;;;2.40;;
70715;SDS011;59053;50.832;12.882;2022-07-29T02:03:21;4.97;;;2.13;;
70715;SDS011;59053;50.832;12.882;2022-07-29T02:05:47;5.63;;;2.25;;
70715;SDS011;59053;50.832;12.882;2022-07-29T02:08:13;5.18;;;2.60;;
70715;SDS011;59053;50.832;12.882;2022-07-29T02:10:40;4.50;;;2.40;;
70715;SDS011;59053;50.832;12.882;2022-07-29T02:13:05;5.90;;;2.53;;
70715;SDS011;59053;50.832;12.882;2022-07-29T02:15:33;5.50;;;2.50;;
70715;SDS011;59053;50.832;12.882;2022-07-29T02:18:01;6.00;;;2.47;;
70715;SDS011;59053;50.832;12.882;2022-07-29T02:20:28;4.43;;;2.47;;
70715;SDS011;59053;50.832;12.882;2022-07-29T02:22:54;4.37;;;2.07;;
70715;SDS011;59053;50.832;12.882;2022-07-29T02:25:20;4.10;;;2.20;;
70715;SDS011;59053;50.832;12.882;2022-07-29T02:27:46;5.63;;;2.33;;
70715;SDS011;59053;50.832;12.882;2022-07-29T02:30:12;4.70;;;2.40;;
70715;SDS011;59053;50.832;12.882;2022-07-29T02:32:38;4.65;;;2.30;;
70715;SDS011;59053;50.832;12.882;2022-07-29T02:35:05;6.57;;;2.20;;
70715;SDS011;59053;50.832;12.882;2022-07-29T02:37:32;6.63;;;2.30;;
70715;SDS011;59053;50.832;12.882;2022-07-29T02:39:57;6.73;;;2.50;;
70715;SDS011;59053;50.832;12.882;2022-07-29T02:42:23;7.97;;;2.90;;
70715;SDS011;59053;50.832;12.882;2022-07-29T02:44:49;6.50;;;2.17;;
70715;SDS011;59053;50.832;12.882;2022-07-29T02:47:29;8.07;;;2.42;;
70715;SDS011;59053;50.832;12.882;2022-07-29T02:50:07;7.45;;;2.40;;
70715;SDS011;59053;50.832;12.882;2022-07-29T02:58:27;8.20;;;2.47;;
70715;SDS011;59053;50.832;12.882;2022-07-29T03:00:58;8.95;;;2.33;;
70715;SDS011;59053;50.832;12.882;2022-07-29T03:03:26;6.78;;;2.15;;
70715;SDS011;59053;50.832;12.882;2022-07-29T03:05:57;5.53;;;2.35;;
70715;SDS011;59053;50.832;12.882;2022-07-29T03:08:24;5.73;;;2.40;;
70715;SDS011;59053;50.832;12.882;2022-07-29T03:10:51;6.70;;;2.53;;
70715;SDS011;59053;50.832;12.882;2022-07-29T03:13:17;7.30;;;2.47;;
70715;SDS011;59053;50.832;12.882;2022-07-29T03:15:44;6.18;;;2.70;;
70715;SDS011;59053;50.832;12.882;2022-07-29T03:18:09;7.43;;;2.72;;
70715;SDS011;59053;50.832;12.882;2022-07-29T03:20:35;6.93;;;2.40;;
70715;SDS011;59053;50.832;12.882;2022-07-29T03:23:02;6.30;;;2.60;;
70715;SDS011;59053;50.832;12.882;2022-07-29T03:25:27;5.40;;;2.60;;
70715;SDS011;59053;50.832;12.882;2022-07-29T03:27:53;5.97;;;2.40;;
70715;SDS011;59053;50.832;12.882;2022-07-29T03:30:18;6.00;;;2.43;;
70715;SDS011;59053;50.832;12.882;2022-07-29T03:32:43;8.87;;;2.80;;
70715;SDS011;59053;50.832;12.882;2022-07-29T03:35:09;5.90;;;2.57;;
70715;SDS011;59053;50.832;12.882;2022-07-29T03:37:34;7.60;;;2.73;;
70715;SDS011;59053;50.832;12.882;2022-07-29T03:40:02;5.65;;;2.72;;
70715;SDS011;59053;50.832;12.882;2022-07-29T03:42:30;7.57;;;2.60;;
70715;SDS011;59053;50.832;12.882;2022-07-29T03:44:57;6.00;;;2.53;;
70715;SDS011;59053;50.832;12.882;2022-07-29T03:47:27;5.43;;;2.80;;
70715;SDS011;59053;50.832;12.882;2022-07-29T03:49:54;7.15;;;3.03;;
70715;SDS011;59053;50.832;12.882;2022-07-29T03:52:22;6.60;;;2.80;;
70715;SDS011;59053;50.832;12.882;2022-07-29T03:54:47;6.23;;;2.53;;
70715;SDS011;59053;50.832;12.882;2022-07-29T03:57:13;5.95;;;3.05;;
70715;SDS011;59053;50.832;12.882;2022-07-29T03:59:40;8.90;;;3.10;;
70715;SDS011;59053;50.832;12.882;2022-07-29T04:02:06;9.53;;;2.97;;
70715;SDS011;59053;50.832;12.882;2022-07-29T04:04:34;6.07;;;2.78;;
70715;SDS011;59053;50.832;12.882;2022-07-29T04:07:00;7.38;;;3.28;;
70715;SDS011;59053;50.832;12.882;2022-07-29T04:09:25;7.55;;;3.55;;
70715;SDS011;59053;50.832;12.882;2022-07-29T04:11:51;8.20;;;3.20;;
70715;SDS011;59053;50.832;12.882;2022-07-29T04:14:16;7.07;;;3.40;;
70715;SDS011;59053;50.832;12.882;2022-07-29T04:16:42;7.03;;;3.58;;
70715;SDS011;59053;50.832;12.882;2022-07-29T04:19:07;7.87;;;3.70;;
70715;SDS011;59053;50.832;12.882;2022-07-29T04:21:36;7.87;;;3.73;;
70715;SDS011;59053;50.832;12.882;2022-07-29T04:24:03;9.40;;;3.92;;
70715;SDS011;59053;50.832;12.882;2022-07-29T04:26:28;9.07;;;3.47;;
70715;SDS011;59053;50.832;12.882;2022-07-29T04:28:54;8.00;;;4.30;;
70715;SDS011;59053;50.832;12.882;2022-07-29T04:31:19;11.73;;;4.10;;
70715;SDS011;59053;50.832;12.882;2022-07-29T04:33:44;8.97;;;4.10;;
70715;SDS011;59053;50.832;12.882;2022-07-29T04:36:10;10.03;;;4.33;;
70715;SDS011;59053;50.832;12.882;2022-07-29T04:38:36;11.88;;;4.50;;
70715;SDS011;59053;50.832;12.882;2022-07-29T04:41:02;8.60;;;3.83;;
70715;SDS011;59053;50.832;12.882;2022-07-29T04:43:27;9.80;;;3.63;;
70715;SDS011;59053;50.832;12.882;2022-07-29T04:45:52;10.33;;;4.00;;
70715;SDS011;59053;50.832;12.882;2022-07-29T04:48:18;10.13;;;4.10;;
70715;SDS011;59053;50.832;12.882;2022-07-29T04:50:43;9.20;;;3.97;;
70715;SDS011;59053;50.832;12.882;2022-07-29T04:53:09;11.52;;;4.35;;
70715;SDS011;59053;50.832;12.882;2022-07-29T04:55:34;7.77;;;4.40;;
70715;SDS011;59053;50.832;12.882;2022-07-29T04:58:01;12.20;;;4.32;;
70715;SDS011;59053;50.832;12.882;2022-07-29T05:00:26;9.27;;;4.43;;
70715;SDS011;59053;50.832;12.882;2022-07-29T05:02:51;8.97;;;4.70;;
70715;SDS011;59053;50.832;12.882;2022-07-29T05:05:17;11.82;;;4.60;;
70715;SDS011;59053;50.832;12.882;2022-07-29T05:07:42;11.20;;;4.80;;
70715;SDS011;59053;50.832;12.882;2022-07-29T05:10:08;9.00;;;4.60;;
70715;SDS011;59053;50.832;12.882;2022-07-29T05:12:33;8.75;;;4.50;;
70715;SDS011;59053;50.832;12.882;2022-07-29T05:14:59;10.57;;;4.40;;
70715;SDS011;59053;50.832;12.882;2022-07-29T05:17:24;8.63;;;4.50;;
70715;SDS011;59053;50.832;12.882;2022-07-29T05:19:50;11.87;;;4.97;;
70715;SDS011;59053;50.832;12.882;2022-07-29T05:22:17;11.10;;;5.20;;
70715;SDS011;59053;50.832;12.882;2022-07-29T05:24:43;11.43;;;4.97;;
70715;SDS011;59053;50.832;12.882;2022-07-29T05:27:08;11.90;;;5.00;;
70715;SDS011;59053;50.832;12.882;2022-07-29T05:29:34;10.32;;;4.85;;
70715;SDS011;59053;50.832;12.882;2022-07-29T05:31:59;13.40;;;4.70;;
70715;SDS011;59053;50.832;12.882;2022-07-29T05:34:25;12.23;;;4.80;;
70715;SDS011;59053;50.832;12.882;2022-07-29T05:36:50;13.77;;;5.97;;
70715;SDS011;59053;50.832;12.882;2022-07-29T05:39:15;13.00;;;5.97;;
70715;SDS011;59053;50.832;12.882;2022-07-29T05:41:41;14.13;;;5.67;;
70715;SDS011;59053;50.832;12.882;2022-07-29T05:44:06;10.30;;;5.10;;
70715;SDS011;59053;50.832;12.882;2022-07-29T05:46:32;11.53;;;4.83;;
70715;SDS011;59053;50.832;12.882;2022-07-29T05:48:57;11.43;;;4.60;;
70715;SDS011;59053;50.832;12.882;2022-07-29T05:51:22;9.30;;;4.93;;
70715;SDS011;59053;50.832;12.882;2022-07-29T05:53:48;11.03;;;4.97;;
70715;SDS011;59053;50.832;12.882;2022-07-29T05:56:13;11.43;;;4.97;;
70715;SDS011;59053;50.832;12.882;2022-07-29T05:58:38;14.97;;;5.23;;
70715;SDS011;59053;50.832;12.882;2022-07-29T06:01:04;15.07;;;5.13;;
70715;SDS011;59053;50.832;12.882;2022-07-29T06:03:29;11.70;;;5.10;;
70715;SDS011;59053;50.832;12.882;2022-07-29T06:05:55;13.90;;;4.80;;
70715;SDS011;59053;50.832;12.882;2022-07-29T06:08:20;10.82;;;5.10;;
70715;SDS011;59053;50.832;12.882;2022-07-29T06:10:46;8.83;;;4.67;;
70715;SDS011;59053;50.832;12.882;2022-07-29T06:13:12;12.13;;;4.67;;
70715;SDS011;59053;50.832;12.882;2022-07-29T06:15:37;13.63;;;4.50;;
70715;SDS011;59053;50.832;12.882;2022-07-29T06:18:03;11.38;;;4.10;;
70715;SDS011;59053;50.832;12.882;2022-07-29T06:20:29;11.43;;;4.17;;
70715;SDS011;59053;50.832;12.882;2022-07-29T06:22:55;12.95;;;4.45;;
70715;SDS011;59053;50.832;12.882;2022-07-29T06:25:21;11.63;;;4.00;;
70715;SDS011;59053;50.832;12.882;2022-07-29T06:27:46;10.43;;;4.45;;
70715;SDS011;59053;50.832;12.882;2022-07-29T06:30:12;14.17;;;4.70;;
70715;SDS011;59053;50.832;12.882;2022-07-29T06:32:38;9.15;;;4.55;;
70715;SDS011;59053;50.832;12.882;2022-07-29T06:35:03;10.20;;;3.97;;
70715;SDS011;59053;50.832;12.882;2022-07-29T06:37:29;10.57;;;4.40;;
70715;SDS011;59053;50.832;12.882;2022-07-29T06:39:54;11.07;;;4.47;;
70715;SDS011;59053;50.832;12.882;2022-07-29T06:42:41;16.53;;;4.50;;
70715;SDS011;59053;50.832;12.882;2022-07-29T06:45:11;10.70;;;4.28;;
70715;SDS011;59053;50.832;12.882;2022-07-29T06:47:36;13.50;;;4.32;;
70715;SDS011;59053;50.832;12.882;2022-07-29T06:50:02;8.27;;;4.20;;
70715;SDS011;59053;50.832;12.882;2022-07-29T06:52:28;12.73;;;4.05;;
70715;SDS011;59053;50.832;12.882;2022-07-29T06:54:53;8.90;;;4.17;;
70715;SDS011;59053;50.832;12.882;2022-07-29T06:57:20;13.75;;;4.40;;
70715;SDS011;59053;50.832;12.882;2022-07-29T06:59:45;15.50;;;4.35;;
70715;SDS011;59053;50.832;12.882;2022-07-29T07:02:11;13.30;;;4.67;;
70715;SDS011;59053;50.832;12.882;2022-07-29T07:04:36;11.20;;;3.80;;
70715;SDS011;59053;50.832;12.882;2022-07-29T07:07:02;10.00;;;3.95;;
70715;SDS011;59053;50.832;12.882;2022-07-29T07:09:27;8.80;;;4.40;;
70715;SDS011;59053;50.832;12.882;2022-07-29T07:11:53;10.27;;;4.00;;
70715;SDS011;59053;50.832;12.882;2022-07-29T07:14:18;10.87;;;3.87;;
70715;SDS011;59053;50.832;12.882;2022-07-29T07:16:43;10.77;;;3.77;;
70715;SDS011;59053;50.832;12.882;2022-07-29T07:19:09;16.27;;;3.87;;
70715;SDS011;59053;50.832;12.882;2022-07-29T07:21:34;11.20;;;3.40;;
70715;SDS011;59053;50.832;12.882;2022-07-29T07:24:00;12.55;;;3.90;;
70715;SDS011;59053;50.832;12.882;2022-07-29T07:26:25;10.40;;;3.50;;
70715;SDS011;59053;50.832;12.882;2022-07-29T07:28:52;13.20;;;4.22;;
70715;SDS011;59053;50.832;12.882;2022-07-29T07:31:17;13.50;;;3.90;;
70715;SDS011;59053;50.832;12.882;2022-07-29T07:33:42;13.93;;;4.07;;
70715;SDS011;59053;50.832;12.882;2022-07-29T07:36:08;12.53;;;4.60;;
70715;SDS011;59053;50.832;12.882;2022-07-29T07:38:33;12.43;;;4.00;;
70715;SDS011;59053;50.832;12.882;2022-07-29T07:40:59;15.10;;;4.23;;
70715;SDS011;59053;50.832;12.882;2022-07-29T07:43:25;11.40;;;4.32;;
70715;SDS011;59053;50.832;12.882;2022-07-29T07:45:50;11.93;;;4.40;;
70715;SDS011;59053;50.832;12.882;2022-07-29T07:48:15;16.00;;;4.27;;
70715;SDS011;59053;50.832;12.882;2022-07-29T07:50:41;9.00;;;3.70;;
70715;SDS011;59053;50.832;12.882;2022-07-29T07:53:06;12.77;;;3.97;;
70715;SDS011;59053;50.832;12.882;2022-07-29T07:55:31;11.77;;;4.22;;
70715;SDS011;59053;50.832;12.882;2022-07-29T07:57:57;12.93;;;4.23;;
70715;SDS011;59053;50.832;12.882;2022-07-29T08:00:22;11.63;;;4.07;;
70715;SDS011;59053;50.832;12.882;2022-07-29T08:02:48;11.03;;;4.60;;
70715;SDS011;59053;50.832;12.882;2022-07-29T08:05:13;12.95;;;4.50;;
70715;SDS011;59053;50.832;12.882;2022-07-29T08:07:42;9.50;;;4.43;;
70715;SDS011;59053;50.832;12.882;2022-07-29T08:10:08;8.68;;;4.63;;
70715;SDS011;59053;50.832;12.882;2022-07-29T08:12:34;11.67;;;4.00;;
70715;SDS011;59053;50.832;12.882;2022-07-29T08:14:59;9.13;;;3.87;;
70715;SDS011;59053;50.832;12.882;2022-07-29T08:17:25;7.83;;;3.87;;
70715;SDS011;59053;50.832;12.882;2022-07-29T08:19:51;7.35;;;3.75;;
70715;SDS011;59053;50.832;12.882;2022-07-29T08:22:16;10.10;;;4.20;;
70715;SDS011;59053;50.832;12.882;2022-07-29T08:24:42;13.37;;;3.70;;
70715;SDS011;59053;50.832;12.882;2022-07-29T08:27:07;9.00;;;3.97;;
70715;SDS011;59053;50.832;12.882;2022-07-29T08:29:33;7.47;;;3.43;;
70715;SDS011;59053;50.832;12.882;2022-07-29T08:31:58;11.77;;;3.40;;
70715;SDS011;59053;50.832;12.882;2022-07-29T08:34:24;10.30;;;3.90;;
70715;SDS011;59053;50.832;12.882;2022-07-29T08:36:49;8.37;;;3.40;;
70715;SDS011;59053;50.832;12.882;2022-07-29T08:39:15;9.60;;;3.60;;
70715;SDS011;59053;50.832;12.882;2022-07-29T08:41:40;7.10;;;3.30;;
70715;SDS011;59053;50.832;12.882;2022-07-29T08:44:05;8.03;;;3.00;;
70715;SDS011;59053;50.832;12.882;2022-07-29T08:46:31;10.77;;;3.60;;
70715;SDS011;59053;50.832;12.882;2022-07-29T08:48:56;9.90;;;3.60;;
70715;SDS011;59053;50.832;12.882;2022-07-29T08:51:21;7.87;;;3.30;;
70715;SDS011;59053;50.832;12.882;2022-07-29T08:53:47;7.53;;;3.63;;
70715;SDS011;59053;50.832;12.882;2022-07-29T08:56:17;10.07;;;3.90;;
70715;SDS011;59053;50.832;12.882;2022-07-29T08:58:43;9.50;;;3.42;;
70715;SDS011;59053;50.832;12.882;2022-07-29T09:01:09;9.23;;;3.28;;
70715;SDS011;59053;50.832;12.882;2022-07-29T09:03:36;14.33;;;3.77;;
70715;SDS011;59053;50.832;12.882;2022-07-29T09:06:05;8.20;;;3.50;;
70715;SDS011;59053;50.832;12.882;2022-07-29T09:08:32;9.70;;;3.40;;
70715;SDS011;59053;50.832;12.882;2022-07-29T09:10:58;6.85;;;3.63;;
70715;SDS011;59053;50.832;12.882;2022-07-29T09:13:25;9.25;;;3.33;;
70715;SDS011;59053;50.832;12.882;2022-07-29T09:15:50;9.23;;;3.92;;
70715;SDS011;59053;50.832;12.882;2022-07-29T09:18:35;6.73;;;3.33;;
70715;SDS011;59053;50.832;12.882;2022-07-29T09:21:05;10.00;;;3.40;;
70715;SDS011;59053;50.832;12.882;2022-07-29T09:24:06;6.73;;;3.10;;
70715;SDS011;59053;50.832;12.882;2022-07-29T09:26:33;8.05;;;3.47;;
70715;SDS011;59053;50.832;12.882;2022-07-29T09:29:09;6.03;;;3.35;;
70715;SDS011;59053;50.832;12.882;2022-07-29T09:31:37;7.20;;;3.80;;
70715;SDS011;59053;50.832;12.882;2022-07-29T09:34:04;7.82;;;3.53;;
70715;SDS011;59053;50.832;12.882;2022-07-29T09:36:29;8.83;;;3.53;;
70715;SDS011;59053;50.832;12.882;2022-07-29T09:39:01;5.35;;;3.35;;
70715;SDS011;59053;50.832;12.882;2022-07-29T09:41:28;7.97;;;3.63;;
70715;SDS011;59053;50.832;12.882;2022-07-29T09:43:57;7.47;;;3.42;;
70715;SDS011;59053;50.832;12.882;2022-07-29T09:46:23;5.88;;;3.70;;
70715;SDS011;59053;50.832;12.882;2022-07-29T09:49:10;6.93;;;3.60;;
70715;SDS011;59053;50.832;12.882;2022-07-29T09:51:36;10.57;;;3.60;;
70715;SDS011;59053;50.832;12.882;2022-07-29T09:54:02;8.65;;;3.40;;
70715;SDS011;59053;50.832;12.882;2022-07-29T09:56:46;5.97;;;3.42;;
70715;SDS011;59053;50.832;12.882;2022-07-29T09:59:13;5.38;;;3.40;;
70715;SDS011;59053;50.832;12.882;2022-07-29T10:01:38;7.93;;;3.40;;
70715;SDS011;59053;50.832;12.882;2022-07-29T10:04:03;7.23;;;3.43;;
70715;SDS011;59053;50.832;12.882;2022-07-29T10:06:29;5.90;;;3.33;;
70715;SDS011;59053;50.832;12.882;2022-07-29T10:08:54;5.70;;;3.33;;
70715;SDS011;59053;50.832;12.882;2022-07-29T10:11:20;6.93;;;3.50;;
70715;SDS011;59053;50.832;12.882;2022-07-29T10:13:46;6.13;;;3.60;;
70715;SDS011;59053;50.832;12.882;2022-07-29T10:16:13;8.27;;;3.30;;
70715;SDS011;59053;50.832;12.882;2022-07-29T10:18:40;6.05;;;3.30;;
70715;SDS011;59053;50.832;12.882;2022-07-29T10:21:06;5.72;;;3.60;;
70715;SDS011;59053;50.832;12.882;2022-07-29T10:23:32;6.03;;;3.30;;
70715;SDS011;59053;50.832;12.882;2022-07-29T10:25:59;6.45;;;3.55;;
70715;SDS011;59053;50.832;12.882;2022-07-29T10:28:25;5.03;;;3.30;;
70715;SDS011;59053;50.832;12.882;2022-07-29T10:30:51;6.10;;;3.60;;
70715;SDS011;59053;50.832;12.882;2022-07-29T10:33:28;3.92;;;3.15;;
70715;SDS011;59053;50.832;12.882;2022-07-29T10:36:20;6.77;;;3.20;;
70715;SDS011;59053;50.832;12.882;2022-07-29T10:38:57;6.25;;;3.75;;
70715;SDS011;59053;50.832;12.882;2022-07-29T10:44:20;7.07;;;3.55;;
70715;SDS011;59053;50.832;12.882;2022-07-29T10:46:47;6.78;;;3.65;;
70715;SDS011;59053;50.832;12.882;2022-07-29T10:49:19;6.50;;;3.50;;
70715;SDS011;59053;50.832;12.882;2022-07-29T10:52:02;7.47;;;3.53;;
70715;SDS011;59053;50.832;12.882;2022-07-29T11:07:32;10.43;;;3.65;;
70715;SDS011;59053;50.832;12.882;2022-07-29T11:15:01;4.97;;;3.20;;
70715;SDS011;59053;50.832;12.882;2022-07-29T11:17:27;5.13;;;3.33;;
70715;SDS011;59053;50.832;12.882;2022-07-29T11:22:56;5.55;;;3.22;;
70715;SDS011;59053;50.832;12.882;2022-07-29T11:25:22;5.68;;;3.42;;
70715;SDS011;59053;50.832;12.882;2022-07-29T11:27:48;9.27;;;3.47;;
70715;SDS011;59053;50.832;12.882;2022-07-29T11:30:14;5.43;;;3.67;;
70715;SDS011;59053;50.832;12.882;2022-07-29T11:32:40;6.40;;;3.40;;
70715;SDS011;59053;50.832;12.882;2022-07-29T11:35:17;6.07;;;3.50;;
70715;SDS011;59053;50.832;12.882;2022-07-29T11:38:30;5.30;;;3.30;;
70715;SDS011;59053;50.832;12.882;2022-07-29T11:43:57;5.10;;;3.50;;
70715;SDS011;59053;50.832;12.882;2022-07-29T11:49:12;6.30;;;3.40;;
70715;SDS011;59053;50.832;12.882;2022-07-29T11:51:37;5.93;;;3.33;;
70715;SDS011;59053;50.832;12.882;2022-07-29T11:54:06;5.07;;;3.40;;
70715;SDS011;59053;50.832;12.882;2022-07-29T11:56:33;4.40;;;3.25;;
70715;SDS011;59053;50.832;12.882;2022-07-29T11:59:03;6.10;;;3.80;;
70715;SDS011;59053;50.832;12.882;2022-07-29T12:01:33;6.78;;;3.42;;
70715;SDS011;59053;50.832;12.882;2022-07-29T12:04:03;6.43;;;3.60;;
70715;SDS011;59053;50.832;12.882;2022-07-29T12:06:29;6.10;;;3.70;;
70715;SDS011;59053;50.832;12.882;2022-07-29T12:08:54;6.20;;;3.60;;
70715;SDS011;59053;50.832;12.882;2022-07-29T12:11:20;4.97;;;3.43;;
70715;SDS011;59053;50.832;12.882;2022-07-29T12:13:45;6.15;;;3.70;;
70715;SDS011;59053;50.832;12.882;2022-07-29T12:16:11;8.37;;;3.43;;
70715;SDS011;59053;50.832;12.882;2022-07-29T12:18:36;5.20;;;3.83;;
70715;SDS011;59053;50.832;12.882;2022-07-29T12:21:02;5.77;;;3.60;;
70715;SDS011;59053;50.832;12.882;2022-07-29T12:23:31;5.72;;;3.60;;
70715;SDS011;59053;50.832;12.882;2022-07-29T12:25:57;7.13;;;3.55;;
70715;SDS011;59053;50.832;12.882;2022-07-29T12:28:23;7.13;;;3.83;;
70715;SDS011;59053;50.832;12.882;2022-07-29T12:30:49;5.53;;;3.60;;
70715;SDS011;59053;50.832;12.882;2022-07-29T12:33:22;6.73;;;3.70;;
70715;SDS011;59053;50.832;12.882;2022-07-29T12:35:59;6.30;;;3.80;;
70715;SDS011;59053;50.832;12.882;2022-07-29T12:38:25;5.18;;;3.60;;
70715;SDS011;59053;50.832;12.882;2022-07-29T12:40:51;7.30;;;4.10;;
70715;SDS011;59053;50.832;12.882;2022-07-29T12:43:18;7.18;;;4.03;;
70715;SDS011;59053;50.832;12.882;2022-07-29T12:45:46;6.28;;;3.50;;
70715;SDS011;59053;50.832;12.882;2022-07-29T12:48:13;7.18;;;4.10;;
70715;SDS011;59053;50.832;12.882;2022-07-29T12:50:52;7.83;;;3.67;;
70715;SDS011;59053;50.832;12.882;2022-07-29T12:53:18;6.72;;;3.60;;
70715;SDS011;59053;50.832;12.882;2022-07-29T12:55:45;6.22;;;3.80;;
70715;SDS011;59053;50.832;12.882;2022-07-29T12:58:33;4.75;;;3.53;;
70715;SDS011;59053;50.832;12.882;2022-07-29T13:01:00;7.50;;;3.50;;
70715;SDS011;59053;50.832;12.882;2022-07-29T13:03:26;6.45;;;3.22;;
70715;SDS011;59053;50.832;12.882;2022-07-29T13:05:52;7.03;;;3.47;;
70715;SDS011;59053;50.832;12.882;2022-07-29T13:08:17;7.13;;;3.47;;
70715;SDS011;59053;50.832;12.882;2022-07-29T13:10:46;11.48;;;3.50;;
70715;SDS011;59053;50.832;12.882;2022-07-29T13:13:12;4.80;;;3.40;;
70715;SDS011;59053;50.832;12.882;2022-07-29T13:15:42;6.35;;;3.50;;
70715;SDS011;59053;50.832;12.882;2022-07-29T13:18:28;5.90;;;3.60;;
70715;SDS011;59053;50.832;12.882;2022-07-29T13:20:55;6.28;;;3.53;;
70715;SDS011;59053;50.832;12.882;2022-07-29T13:23:20;7.63;;;3.77;;
70715;SDS011;59053;50.832;12.882;2022-07-29T13:25:46;4.85;;;3.53;;
70715;SDS011;59053;50.832;12.882;2022-07-29T13:28:11;5.07;;;3.40;;
70715;SDS011;59053;50.832;12.882;2022-07-29T13:30:37;7.10;;;3.40;;
70715;SDS011;59053;50.832;12.882;2022-07-29T13:33:02;5.43;;;3.50;;
70715;SDS011;59053;50.832;12.882;2022-07-29T13:35:28;6.47;;;3.73;;
70715;SDS011;59053;50.832;12.882;2022-07-29T13:37:54;8.65;;;3.78;;
70715;SDS011;59053;50.832;12.882;2022-07-29T13:40:20;9.20;;;3.80;;
70715;SDS011;59053;50.832;12.882;2022-07-29T13:42:45;6.77;;;3.30;;
70715;SDS011;59053;50.832;12.882;2022-07-29T13:45:10;6.37;;;3.60;;
70715;SDS011;59053;50.832;12.882;2022-07-29T13:47:36;5.30;;;3.57;;
70715;SDS011;59053;50.832;12.882;2022-07-29T13:50:02;6.17;;;3.57;;
70715;SDS011;59053;50.832;12.882;2022-07-29T13:52:29;9.23;;;3.92;;
70715;SDS011;59053;50.832;12.882;2022-07-29T13:54:54;11.57;;;3.93;;
70715;SDS011;59053;50.832;12.882;2022-07-29T13:57:20;8.35;;;4.05;;
70715;SDS011;59053;50.832;12.882;2022-07-29T13:59:45;9.97;;;4.13;;
70715;SDS011;59053;50.832;12.882;2022-07-29T14:02:11;10.73;;;4.13;;
70715;SDS011;59053;50.832;12.882;2022-07-29T14:04:37;5.85;;;4.00;;
70715;SDS011;59053;50.832;12.882;2022-07-29T14:07:02;7.75;;;3.97;;
70715;SDS011;59053;50.832;12.882;2022-07-29T14:09:28;6.93;;;3.40;;
70715;SDS011;59053;50.832;12.882;2022-07-29T14:11:53;11.93;;;8.93;;
70715;SDS011;59053;50.832;12.882;2022-07-29T14:14:19;7.13;;;4.35;;
70715;SDS011;59053;50.832;12.882;2022-07-29T14:16:45;6.07;;;4.00;;
70715;SDS011;59053;50.832;12.882;2022-07-29T14:19:10;5.93;;;4.15;;
70715;SDS011;59053;50.832;12.882;2022-07-29T14:21:36;6.73;;;4.30;;
70715;SDS011;59053;50.832;12.882;2022-07-29T14:24:02;7.32;;;4.47;;
70715;SDS011;59053;50.832;12.882;2022-07-29T14:26:27;6.43;;;4.27;;
70715;SDS011;59053;50.832;12.882;2022-07-29T14:28:52;8.10;;;4.10;;
70715;SDS011;59053;50.832;12.882;2022-07-29T14:31:18;6.80;;;3.90;;
70715;SDS011;59053;50.832;12.882;2022-07-29T14:33:43;5.90;;;4.07;;
70715;SDS011;59053;50.832;12.882;2022-07-29T14:36:08;7.55;;;4.20;;
70715;SDS011;59053;50.832;12.882;2022-07-29T14:38:34;9.97;;;6.03;;
70715;SDS011;59053;50.832;12.882;2022-07-29T14:41:00;9.73;;;5.15;;
70715;SDS011;59053;50.832;12.882;2022-07-29T14:43:25;8.83;;;4.80;;
70715;SDS011;59053;50.832;12.882;2022-07-29T14:45:51;6.67;;;4.40;;
70715;SDS011;59053;50.832;12.882;2022-07-29T14:48:16;6.03;;;3.93;;
70715;SDS011;59053;50.832;12.882;2022-07-29T14:50:42;7.73;;;4.10;;
70715;SDS011;59053;50.832;12.882;2022-07-29T14:53:07;8.17;;;4.57;;
70715;SDS011;59053;50.832;12.882;2022-07-29T14:55:32;7.30;;;4.37;;
70715;SDS011;59053;50.832;12.882;2022-07-29T14:57:58;8.20;;;5.07;;
70715;SDS011;59053;50.832;12.882;2022-07-29T15:00:24;8.00;;;5.22;;
70715;SDS011;59053;50.832;12.882;2022-07-29T15:02:50;9.25;;;5.53;;
70715;SDS011;59053;50.832;12.882;2022-07-29T15:05:15;11.53;;;6.13;;
70715;SDS011;59053;50.832;12.882;2022-07-29T15:07:41;11.47;;;6.10;;
70715;SDS011;59053;50.832;12.882;2022-07-29T15:10:06;11.18;;;6.30;;
70715;SDS011;59053;50.832;12.882;2022-07-29T15:12:32;10.63;;;5.70;;
70715;SDS011;59053;50.832;12.882;2022-07-29T15:14:58;9.40;;;6.10;;
70715;SDS011;59053;50.832;12.882;2022-07-29T15:17:23;9.87;;;5.80;;